createdAt,value
2019-01-13T00:00:43.463Z,-4.28
2019-01-13T00:01:48.376Z,-4.36
2019-01-13T00:02:51.739Z,-4.33
2019-01-13T00:03:55.400Z,-4.36
2019-01-13T00:04:58.689Z,-4.36
2019-01-13T00:06:01.992Z,-4.43
2019-01-13T00:07:05.356Z,-4.44
2019-01-13T00:08:08.668Z,-4.40
2019-01-13T00:09:12.536Z,-4.39
2019-01-13T00:10:15.893Z,-4.41
2019-01-13T00:11:19.273Z,-4.42
2019-01-13T00:12:22.639Z,-4.40
2019-01-13T00:13:25.938Z,-4.35
2019-01-13T00:14:29.262Z,-4.24
2019-01-13T00:15:32.544Z,-4.19
2019-01-13T00:16:35.970Z,-4.20
2019-01-13T00:17:39.347Z,-4.27
2019-01-13T00:18:42.621Z,-4.29
2019-01-13T00:19:45.909Z,-4.40
2019-01-13T00:20:49.196Z,-4.40
2019-01-13T00:21:52.582Z,-4.30
2019-01-13T00:22:55.941Z,-4.30
2019-01-13T00:23:59.292Z,-4.25
2019-01-13T00:25:02.654Z,-4.31
2019-01-13T00:26:05.943Z,-4.30
2019-01-13T00:27:09.271Z,-4.38
2019-01-13T00:28:12.563Z,-4.48
2019-01-13T00:29:15.858Z,-4.45
2019-01-13T00:30:19.823Z,-4.45
2019-01-13T00:31:23.060Z,-4.41
2019-01-13T00:32:26.375Z,-4.47
2019-01-13T00:33:29.666Z,-4.53
2019-01-13T00:34:32.960Z,-4.54
2019-01-13T00:35:36.245Z,-4.42
2019-01-13T00:36:39.542Z,-4.30
2019-01-13T00:37:42.911Z,-4.30
2019-01-13T00:38:46.204Z,-4.33
2019-01-13T00:39:49.635Z,-4.38
2019-01-13T00:40:52.927Z,-4.39
2019-01-13T00:41:56.213Z,-4.40
2019-01-13T00:42:59.926Z,-4.47
2019-01-13T00:44:03.285Z,-4.51
2019-01-13T00:45:08.417Z,-4.47
2019-01-13T00:46:11.883Z,-4.42
2019-01-13T00:47:15.173Z,-4.40
2019-01-13T00:48:18.492Z,-4.32
2019-01-13T00:49:21.777Z,-4.32
2019-01-13T00:50:25.065Z,-4.38
2019-01-13T00:51:28.364Z,-4.42
2019-01-13T00:52:31.645Z,-4.41
2019-01-13T00:53:34.947Z,-4.36
2019-01-13T00:54:38.242Z,-4.35
2019-01-13T00:55:41.535Z,-4.26
2019-01-13T00:56:44.899Z,-4.26
2019-01-13T00:57:48.185Z,-4.30
2019-01-13T00:58:51.476Z,-4.26
2019-01-13T00:59:54.764Z,-4.18
2019-01-13T01:00:58.126Z,-4.16
2019-01-13T01:02:01.412Z,-4.15
2019-01-13T01:03:04.866Z,-4.18
2019-01-13T01:04:08.187Z,-4.19
2019-01-13T01:05:11.550Z,-4.31
2019-01-13T01:06:14.839Z,-4.34
2019-01-13T01:07:18.189Z,-4.30
2019-01-13T01:08:21.552Z,-4.34
2019-01-13T01:09:24.854Z,-4.47
2019-01-13T01:10:28.162Z,-4.44
2019-01-13T01:11:31.593Z,-4.40
2019-01-13T01:12:34.955Z,-4.37
2019-01-13T01:13:38.242Z,-4.39
2019-01-13T01:14:41.642Z,-4.36
2019-01-13T01:15:44.998Z,-4.35
2019-01-13T01:16:48.351Z,-4.39
2019-01-13T01:17:51.704Z,-4.37
2019-01-13T01:18:55.069Z,-4.35
2019-01-13T01:19:58.406Z,-4.30
2019-01-13T01:21:01.863Z,-4.27
2019-01-13T01:22:05.345Z,-4.24
2019-01-13T01:23:09.037Z,-4.27
2019-01-13T01:24:12.423Z,-4.28
2019-01-13T01:25:17.391Z,-4.35
2019-01-13T01:26:20.688Z,-4.47
2019-01-13T01:27:23.985Z,-4.56
2019-01-13T01:28:27.267Z,-4.67
2019-01-13T01:29:30.551Z,-4.74
2019-01-13T01:30:33.882Z,-4.72
2019-01-13T01:31:37.242Z,-4.76
2019-01-13T01:32:40.525Z,-4.80
2019-01-13T01:33:43.879Z,-4.82
2019-01-13T01:34:47.245Z,-4.81
2019-01-13T01:35:50.579Z,-4.83
2019-01-13T01:36:54.298Z,-4.86
2019-01-13T01:37:57.735Z,-4.85
2019-01-13T01:39:01.027Z,-4.79
2019-01-13T01:40:07.583Z,-4.67
2019-01-13T01:41:10.905Z,-4.57
2019-01-13T01:42:14.189Z,-4.58
2019-01-13T01:43:17.473Z,-4.69
2019-01-13T01:44:20.759Z,-4.77
2019-01-13T01:45:24.042Z,-4.78
2019-01-13T01:46:27.365Z,-4.85
2019-01-13T01:47:30.652Z,-4.80
2019-01-13T01:48:33.945Z,-4.69
2019-01-13T01:49:37.234Z,-4.62
2019-01-13T01:50:40.528Z,-4.62
2019-01-13T01:51:43.927Z,-4.53
2019-01-13T01:52:47.211Z,-4.48
2019-01-13T01:53:50.499Z,-4.53
2019-01-13T01:54:53.789Z,-4.52
2019-01-13T01:55:57.086Z,-4.53
2019-01-13T01:57:00.478Z,-4.49
2019-01-13T01:58:03.760Z,-4.45
2019-01-13T01:59:07.049Z,-4.46
2019-01-13T02:00:13.819Z,-4.43
2019-01-13T02:01:17.109Z,-4.47
2019-01-13T02:02:22.172Z,-4.42
2019-01-13T02:03:25.467Z,-4.38
2019-01-13T02:04:28.766Z,-4.32
2019-01-13T02:05:32.024Z,-4.36
2019-01-13T02:06:35.356Z,-4.40
2019-01-13T02:07:38.655Z,-4.51
2019-01-13T02:08:41.940Z,-4.62
2019-01-13T02:09:45.299Z,-4.65
2019-01-13T02:10:48.582Z,-4.67
2019-01-13T02:11:51.869Z,-4.67
2019-01-13T02:12:55.509Z,-4.67
2019-01-13T02:13:58.800Z,-4.75
2019-01-13T02:15:02.079Z,-4.81
2019-01-13T02:16:05.370Z,-4.82
2019-01-13T02:17:08.726Z,-4.79
2019-01-13T02:18:12.047Z,-4.74
2019-01-13T02:19:15.337Z,-4.68
2019-01-13T02:20:19.638Z,-4.69
2019-01-13T02:21:22.995Z,-4.74
2019-01-13T02:22:26.288Z,-4.73
2019-01-13T02:23:29.634Z,-4.72
2019-01-13T02:24:32.917Z,-4.82
2019-01-13T02:25:36.574Z,-4.82
2019-01-13T02:26:39.874Z,-4.75
2019-01-13T02:27:43.242Z,-4.72
2019-01-13T02:28:46.567Z,-4.70
2019-01-13T02:29:49.850Z,-4.64
2019-01-13T02:30:53.132Z,-4.65
2019-01-13T02:31:56.422Z,-4.72
2019-01-13T02:32:59.775Z,-4.62
2019-01-13T02:34:03.103Z,-4.63
2019-01-13T02:35:08.125Z,-4.69
2019-01-13T02:36:11.486Z,-4.76
2019-01-13T02:37:14.791Z,-4.85
2019-01-13T02:38:18.072Z,-4.82
2019-01-13T02:39:21.735Z,-4.78
2019-01-13T02:40:25.386Z,-4.76
2019-01-13T02:41:29.138Z,-4.74
2019-01-13T02:42:32.502Z,-4.75
2019-01-13T02:43:35.787Z,-4.80
2019-01-13T02:44:39.443Z,-4.78
2019-01-13T02:45:42.744Z,-4.76
2019-01-13T02:46:46.029Z,-4.79
2019-01-13T02:47:49.343Z,-4.82
2019-01-13T02:48:52.633Z,-4.84
2019-01-13T02:49:55.953Z,-4.89
2019-01-13T02:50:59.242Z,-4.90
2019-01-13T02:52:02.535Z,-4.90
2019-01-13T02:53:05.895Z,-4.96
2019-01-13T02:54:09.246Z,-5.03
2019-01-13T02:55:12.602Z,-5.01
2019-01-13T02:56:15.891Z,-4.96
2019-01-13T02:57:19.176Z,-4.95
2019-01-13T02:58:22.844Z,-5.01
2019-01-13T02:59:26.125Z,-4.97
2019-01-13T03:00:29.469Z,-5.10
2019-01-13T03:01:32.827Z,-5.09
2019-01-13T03:02:36.118Z,-5.01
2019-01-13T03:03:39.445Z,-4.99
2019-01-13T03:04:42.761Z,-4.98
2019-01-13T03:05:46.094Z,-5.00
2019-01-13T03:06:49.381Z,-4.94
2019-01-13T03:07:52.680Z,-4.96
2019-01-13T03:08:56.036Z,-4.98
2019-01-13T03:09:59.330Z,-4.95
2019-01-13T03:11:02.967Z,-4.90
2019-01-13T03:12:06.589Z,-4.93
2019-01-13T03:13:09.883Z,-5.00
2019-01-13T03:14:13.185Z,-5.01
2019-01-13T03:15:19.980Z,-4.97
2019-01-13T03:16:23.322Z,-4.99
2019-01-13T03:17:26.618Z,-5.01
2019-01-13T03:18:29.914Z,-5.01
2019-01-13T03:19:34.142Z,-4.99
2019-01-13T03:20:37.474Z,-4.97
2019-01-13T03:21:40.822Z,-4.93
2019-01-13T03:22:44.174Z,-5.01
2019-01-13T03:23:47.794Z,-5.10
2019-01-13T03:24:51.084Z,-5.06
2019-01-13T03:25:54.664Z,-5.00
2019-01-13T03:26:57.981Z,-5.01
2019-01-13T03:28:01.266Z,-5.08
2019-01-13T03:29:04.702Z,-5.12
2019-01-13T03:30:13.982Z,-5.13
2019-01-13T03:31:17.338Z,-5.08
2019-01-13T03:32:20.632Z,-5.07
2019-01-13T03:33:23.934Z,-5.13
2019-01-13T03:34:27.231Z,-5.16
2019-01-13T03:35:30.535Z,-5.09
2019-01-13T03:36:33.838Z,-5.03
2019-01-13T03:37:37.161Z,-5.09
2019-01-13T03:38:40.453Z,-5.12
2019-01-13T03:39:43.740Z,-5.10
2019-01-13T03:40:47.035Z,-5.10
2019-01-13T03:41:50.311Z,-5.06
2019-01-13T03:42:53.722Z,-5.10
2019-01-13T03:43:57.130Z,-5.06
2019-01-13T03:45:00.407Z,-5.03
2019-01-13T03:46:03.701Z,-4.98
2019-01-13T03:47:06.997Z,-4.99
2019-01-13T03:48:10.314Z,-5.00
2019-01-13T03:49:13.672Z,-5.06
2019-01-13T03:50:19.474Z,-5.13
2019-01-13T03:51:22.764Z,-5.18
2019-01-13T03:52:26.402Z,-5.21
2019-01-13T03:53:30.081Z,-5.23
2019-01-13T03:54:33.370Z,-5.34
2019-01-13T03:55:36.695Z,-5.43
2019-01-13T03:56:39.968Z,-5.37
2019-01-13T03:57:43.268Z,-5.28
2019-01-13T03:58:46.904Z,-5.26
2019-01-13T03:59:50.195Z,-5.19
2019-01-13T04:00:53.482Z,-5.12
2019-01-13T04:01:56.772Z,-5.03
2019-01-13T04:03:00.063Z,-4.99
2019-01-13T04:04:03.395Z,-4.98
2019-01-13T04:05:06.953Z,-5.01
2019-01-13T04:06:10.238Z,-4.94
2019-01-13T04:07:13.528Z,-4.94
2019-01-13T04:08:16.807Z,-4.93
2019-01-13T04:09:20.123Z,-4.93
2019-01-13T04:10:23.408Z,-4.93
2019-01-13T04:11:26.691Z,-4.85
2019-01-13T04:12:29.982Z,-4.84
2019-01-13T04:13:33.261Z,-4.79
2019-01-13T04:14:36.588Z,-4.76
2019-01-13T04:15:41.712Z,-4.78
2019-01-13T04:16:45.385Z,-4.78
2019-01-13T04:17:48.673Z,-4.80
2019-01-13T04:18:51.962Z,-4.75
2019-01-13T04:19:55.304Z,-4.77
2019-01-13T04:20:58.608Z,-4.80
2019-01-13T04:22:02.211Z,-4.75
2019-01-13T04:23:05.504Z,-4.80
2019-01-13T04:24:08.795Z,-4.84
2019-01-13T04:25:12.189Z,-4.83
2019-01-13T04:26:15.478Z,-4.91
2019-01-13T04:27:18.760Z,-5.02
2019-01-13T04:28:22.050Z,-5.10
2019-01-13T04:29:25.715Z,-5.17
2019-01-13T04:30:29.047Z,-5.19
2019-01-13T04:31:32.484Z,-5.22
2019-01-13T04:32:35.765Z,-5.27
2019-01-13T04:33:39.055Z,-5.28
2019-01-13T04:34:42.343Z,-5.25
2019-01-13T04:35:45.696Z,-5.23
2019-01-13T04:36:48.988Z,-5.19
2019-01-13T04:37:52.269Z,-5.03
2019-01-13T04:38:55.615Z,-4.88
2019-01-13T04:39:58.902Z,-4.84
2019-01-13T04:41:02.222Z,-4.80
2019-01-13T04:42:05.506Z,-4.87
2019-01-13T04:43:08.927Z,-4.95
2019-01-13T04:44:12.221Z,-4.99
2019-01-13T04:45:15.507Z,-5.05
2019-01-13T04:46:18.818Z,-5.02
2019-01-13T04:47:22.105Z,-4.98
2019-01-13T04:48:25.408Z,-5.01
2019-01-13T04:49:28.688Z,-5.03
2019-01-13T04:50:32.050Z,-4.98
2019-01-13T04:51:35.373Z,-4.90
2019-01-13T04:52:38.852Z,-4.99
2019-01-13T04:53:42.108Z,-5.07
2019-01-13T04:54:45.393Z,-5.15
2019-01-13T04:55:48.672Z,-5.07
2019-01-13T04:56:51.989Z,-5.01
2019-01-13T04:57:55.275Z,-4.91
2019-01-13T04:58:58.557Z,-4.96
2019-01-13T05:00:01.845Z,-4.92
2019-01-13T05:01:05.193Z,-4.93
2019-01-13T05:02:08.535Z,-4.88
2019-01-13T05:03:11.883Z,-4.82
2019-01-13T05:04:15.170Z,-4.80
2019-01-13T05:05:18.455Z,-4.76
2019-01-13T05:06:21.813Z,-4.76
2019-01-13T05:07:25.138Z,-4.69
2019-01-13T05:08:28.474Z,-4.69
2019-01-13T05:09:31.819Z,-4.70
2019-01-13T05:10:35.130Z,-4.71
2019-01-13T05:11:38.411Z,-4.72
2019-01-13T05:12:42.074Z,-4.68
2019-01-13T05:13:45.371Z,-4.68
2019-01-13T05:14:48.662Z,-4.64
2019-01-13T05:15:51.949Z,-4.64
2019-01-13T05:16:55.244Z,-4.60
2019-01-13T05:17:58.545Z,-4.51
2019-01-13T05:19:01.833Z,-4.48
2019-01-13T05:20:08.628Z,-4.47
2019-01-13T05:21:11.926Z,-4.53
2019-01-13T05:22:15.217Z,-4.49
2019-01-13T05:23:18.540Z,-4.47
2019-01-13T05:24:21.828Z,-4.39
2019-01-13T05:25:25.116Z,-4.40
2019-01-13T05:26:28.411Z,-4.38
2019-01-13T05:27:31.699Z,-4.41
2019-01-13T05:28:35.115Z,-4.42
2019-01-13T05:29:39.368Z,-4.46
2019-01-13T05:30:42.721Z,-4.48
2019-01-13T05:31:46.016Z,-4.44
2019-01-13T05:32:49.471Z,-4.42
2019-01-13T05:33:53.216Z,-4.35
2019-01-13T05:34:56.605Z,-4.28
2019-01-13T05:35:59.889Z,-4.29
2019-01-13T05:37:04.812Z,-4.33
2019-01-13T05:38:08.099Z,-4.37
2019-01-13T05:39:11.436Z,-4.33
2019-01-13T05:40:16.661Z,-4.39
2019-01-13T05:41:19.956Z,-4.44
2019-01-13T05:42:23.262Z,-4.48
2019-01-13T05:43:26.562Z,-4.49
2019-01-13T05:44:29.886Z,-4.49
2019-01-13T05:45:33.335Z,-4.44
2019-01-13T05:46:36.763Z,-4.43
2019-01-13T05:47:40.101Z,-4.39
2019-01-13T05:48:43.394Z,-4.37
2019-01-13T05:49:46.755Z,-4.41
2019-01-13T05:51:09.227Z,-4.46
2019-01-13T05:52:12.512Z,-4.51
2019-01-13T05:53:15.879Z,-4.49
2019-01-13T05:54:19.274Z,-4.61
2019-01-13T05:55:22.784Z,-4.69
2019-01-13T05:56:26.144Z,-4.63
2019-01-13T05:57:29.556Z,-4.64
2019-01-13T05:58:32.846Z,-4.72
2019-01-13T05:59:36.192Z,-4.68
2019-01-13T06:00:40.149Z,-4.66
2019-01-13T06:01:49.067Z,-4.67
2019-01-13T06:02:48.495Z,-4.72
2019-01-13T06:03:51.948Z,-4.81
2019-01-13T06:04:55.229Z,-4.84
2019-01-13T06:06:00.678Z,-4.89
2019-01-13T06:07:03.978Z,-4.83
2019-01-13T06:08:07.308Z,-4.76
2019-01-13T06:09:10.593Z,-4.72
2019-01-13T06:10:16.844Z,-4.67
2019-01-13T06:11:20.134Z,-4.64
2019-01-13T06:12:23.420Z,-4.58
2019-01-13T06:13:26.751Z,-4.62
2019-01-13T06:14:30.039Z,-4.65
2019-01-13T06:15:33.332Z,-4.64
2019-01-13T06:16:36.629Z,-4.70
2019-01-13T06:17:39.935Z,-4.68
2019-01-13T06:18:43.279Z,-4.68
2019-01-13T06:19:46.671Z,-4.68
2019-01-13T06:20:49.959Z,-4.67
2019-01-13T06:21:53.244Z,-4.65
2019-01-13T06:22:56.543Z,-4.65
2019-01-13T06:23:59.865Z,-4.56
2019-01-13T06:25:03.157Z,-4.48
2019-01-13T06:26:06.447Z,-4.49
2019-01-13T06:27:09.734Z,-4.39
2019-01-13T06:28:13.029Z,-4.38
2019-01-13T06:29:16.349Z,-4.35
2019-01-13T06:30:20.984Z,-4.37
2019-01-13T06:31:24.303Z,-4.33
2019-01-13T06:32:27.603Z,-4.27
2019-01-13T06:33:30.892Z,-4.23
2019-01-13T06:34:34.216Z,-4.27
2019-01-13T06:35:37.511Z,-4.33
2019-01-13T06:36:40.808Z,-4.25
2019-01-13T06:37:44.611Z,-4.20
2019-01-13T06:38:47.906Z,-4.23
2019-01-13T06:39:51.232Z,-4.23
2019-01-13T06:40:54.529Z,-4.13
2019-01-13T06:41:57.812Z,-4.05
2019-01-13T06:43:01.113Z,-4.00
2019-01-13T06:44:04.410Z,-4.02
2019-01-13T06:45:13.177Z,-3.96
2019-01-13T06:46:16.542Z,-4.00
2019-01-13T06:47:19.899Z,-3.98
2019-01-13T06:48:23.610Z,-3.88
2019-01-13T06:49:27.075Z,-3.84
2019-01-13T06:50:30.474Z,-3.80
2019-01-13T06:51:33.766Z,-3.79
2019-01-13T06:52:37.160Z,-3.89
2019-01-13T06:53:40.459Z,-3.94
2019-01-13T06:54:43.765Z,-3.92
2019-01-13T06:55:47.094Z,-3.84
2019-01-13T06:56:50.379Z,-3.87
2019-01-13T06:57:54.090Z,-3.82
2019-01-13T06:58:57.385Z,-3.85
2019-01-13T07:00:00.672Z,-3.81
2019-01-13T07:01:04.004Z,-3.73
2019-01-13T07:02:07.297Z,-3.61
2019-01-13T07:03:10.647Z,-3.56
2019-01-13T07:04:13.936Z,-3.54
2019-01-13T07:05:17.227Z,-3.55
2019-01-13T07:06:20.604Z,-3.59
2019-01-13T07:07:23.900Z,-3.57
2019-01-13T07:08:27.191Z,-3.52
2019-01-13T07:09:30.482Z,-3.35
2019-01-13T07:10:33.761Z,-3.30
2019-01-13T07:11:37.230Z,-3.25
2019-01-13T07:12:40.520Z,-3.24
2019-01-13T07:13:43.818Z,-3.17
2019-01-13T07:14:47.101Z,-3.11
2019-01-13T07:15:50.402Z,-3.12
2019-01-13T07:16:53.738Z,-3.08
2019-01-13T07:17:57.011Z,-3.05
2019-01-13T07:19:00.376Z,-3.01
2019-01-13T07:20:06.721Z,-2.99
2019-01-13T07:21:10.020Z,-2.98
2019-01-13T07:22:13.340Z,-2.92
2019-01-13T07:23:16.629Z,-2.91
2019-01-13T07:24:19.997Z,-2.86
2019-01-13T07:25:23.297Z,-2.91
2019-01-13T07:26:26.653Z,-2.99
2019-01-13T07:27:29.987Z,-3.05
2019-01-13T07:28:33.273Z,-3.05
2019-01-13T07:29:36.606Z,-2.96
2019-01-13T07:30:39.953Z,-2.91
2019-01-13T07:31:43.247Z,-2.95
2019-01-13T07:32:46.576Z,-2.94
2019-01-13T07:33:50.229Z,-2.98
2019-01-13T07:34:53.557Z,-2.94
2019-01-13T07:35:56.859Z,-2.94
2019-01-13T07:37:00.175Z,-2.93
2019-01-13T07:38:03.472Z,-2.97
2019-01-13T07:39:07.546Z,-3.09
2019-01-13T07:40:16.324Z,-3.11
2019-01-13T07:41:19.712Z,-3.09
2019-01-13T07:42:23.065Z,-3.08
2019-01-13T07:46:33.507Z,-2.73
2019-01-13T07:47:43.217Z,-2.70
2019-01-13T07:48:48.224Z,-2.64
2019-01-13T07:49:51.514Z,-2.53
2019-01-13T07:50:59.558Z,-2.47
2019-01-13T07:52:04.681Z,-2.42
2019-01-13T07:53:08.019Z,-2.41
2019-01-13T07:55:43.162Z,-2.35
2019-01-13T07:56:54.138Z,-2.25
2019-01-13T07:58:01.984Z,-2.09
2019-01-13T07:59:11.174Z,-2.08
2019-01-13T08:00:20.236Z,-2.02
2019-01-13T08:01:32.360Z,-2.05
2019-01-13T08:02:52.544Z,-2.10
2019-01-13T08:03:55.863Z,-1.98
2019-01-13T08:04:59.174Z,-1.79
2019-01-13T08:06:02.810Z,-1.81
2019-01-13T08:07:06.097Z,-1.83
2019-01-13T08:08:09.394Z,-1.90
2019-01-13T08:09:12.719Z,-1.87
2019-01-13T08:10:16.303Z,-1.79
2019-01-13T08:11:19.969Z,-1.72
2019-01-13T08:12:23.252Z,-1.67
2019-01-13T08:13:26.545Z,-1.56
2019-01-13T08:14:29.945Z,-1.58
2019-01-13T08:15:33.317Z,-1.56
2019-01-13T08:16:36.597Z,-1.54
2019-01-13T08:17:39.891Z,-1.52
2019-01-13T08:18:43.183Z,-1.52
2019-01-13T08:19:46.513Z,-1.47
2019-01-13T08:20:49.919Z,-1.39
2019-01-13T08:21:53.208Z,-1.30
2019-01-13T08:22:56.494Z,-1.14
2019-01-13T08:23:59.789Z,-1.10
2019-01-13T08:25:03.113Z,-0.98
2019-01-13T08:26:06.473Z,-0.90
2019-01-13T08:27:09.756Z,-0.86
2019-01-13T08:28:13.970Z,-0.88
2019-01-13T08:29:17.248Z,-0.79
2019-01-13T08:30:21.022Z,-0.77
2019-01-13T08:31:24.304Z,-0.76
2019-01-13T08:32:27.663Z,-0.75
2019-01-13T08:33:30.961Z,-0.66
2019-01-13T08:34:34.388Z,-0.47
2019-01-13T08:35:37.892Z,-0.40
2019-01-13T08:36:41.487Z,-0.31
2019-01-13T08:37:44.834Z,-0.33
2019-01-13T08:38:48.194Z,-0.19
2019-01-13T08:39:51.490Z,-0.04
2019-01-13T08:40:54.931Z,0.02
2019-01-13T08:41:58.572Z,-0.02
2019-01-13T08:43:02.216Z,-0.04
2019-01-13T08:44:05.562Z,-0.16
2019-01-13T08:45:10.301Z,-0.30
2019-01-13T08:46:13.754Z,-0.28
2019-01-13T08:47:17.038Z,-0.37
2019-01-13T08:48:20.485Z,-0.27
2019-01-13T08:49:23.765Z,-0.30
2019-01-13T08:50:27.117Z,-0.31
2019-01-13T08:51:31.743Z,-0.09
2019-01-13T08:52:35.106Z,-0.03
2019-01-13T08:53:38.381Z,0.04
2019-01-13T08:54:41.660Z,0.03
2019-01-13T08:55:44.944Z,0.00
2019-01-13T08:56:48.440Z,0.07
2019-01-13T08:57:51.705Z,0.12
2019-01-13T08:58:55.118Z,0.13
2019-01-13T08:59:58.399Z,0.11
2019-01-13T09:01:01.783Z,0.09
2019-01-13T09:02:05.445Z,-0.01
2019-01-13T09:03:08.736Z,-0.12
2019-01-13T09:04:12.007Z,-0.14
2019-01-13T09:05:15.362Z,-0.10
2019-01-13T09:06:18.655Z,-0.07
2019-01-13T09:07:22.052Z,-0.08
2019-01-13T09:08:25.348Z,-0.06
2019-01-13T09:09:30.114Z,-0.02
2019-01-13T09:10:34.058Z,-0.07
2019-01-13T09:11:37.421Z,-0.14
2019-01-13T09:12:40.893Z,-0.15
2019-01-13T09:13:44.327Z,-0.05
2019-01-13T09:14:47.614Z,0.10
2019-01-13T09:15:50.964Z,0.21
2019-01-13T09:16:54.252Z,0.21
2019-01-13T09:17:57.604Z,0.20
2019-01-13T09:19:00.933Z,0.20
2019-01-13T09:20:07.580Z,0.27
2019-01-13T09:21:10.890Z,0.27
2019-01-13T09:22:14.192Z,0.34
2019-01-13T09:23:17.576Z,0.33
2019-01-13T09:24:20.917Z,0.22
2019-01-13T09:25:24.203Z,0.16
2019-01-13T09:26:27.493Z,0.08
2019-01-13T09:27:30.783Z,0.18
2019-01-13T09:28:34.092Z,0.11
2019-01-13T09:29:42.412Z,0.13
2019-01-13T09:30:42.401Z,0.01
2019-01-13T09:31:45.745Z,0.18
2019-01-13T09:32:49.472Z,0.22
2019-01-13T09:33:52.804Z,0.27
2019-01-13T09:34:56.088Z,0.36
2019-01-13T09:35:59.381Z,0.40
2019-01-13T09:37:02.780Z,0.39
2019-01-13T09:38:06.881Z,0.41
2019-01-13T09:39:10.281Z,0.52
2019-01-13T09:40:16.770Z,0.72
2019-01-13T09:41:20.074Z,0.86
2019-01-13T09:42:23.475Z,1.02
2019-01-13T09:43:26.848Z,1.01
2019-01-13T09:44:30.247Z,0.94
2019-01-13T09:45:33.611Z,0.91
2019-01-13T09:46:36.899Z,1.07
2019-01-13T09:47:40.222Z,1.05
2019-01-13T09:48:43.577Z,1.05
2019-01-13T09:49:49.952Z,1.02
2019-01-13T09:50:51.882Z,0.97
2019-01-13T09:51:55.567Z,0.94
2019-01-13T09:52:58.896Z,1.03
2019-01-13T09:54:02.176Z,1.05
2019-01-13T09:55:08.671Z,1.14
2019-01-13T09:56:11.962Z,1.12
2019-01-13T09:57:15.255Z,1.05
2019-01-13T09:58:19.062Z,0.97
2019-01-13T09:59:22.409Z,0.93
2019-01-13T10:00:28.600Z,0.97
2019-01-13T10:01:32.291Z,0.95
2019-01-13T10:02:35.591Z,0.88
2019-01-13T10:03:40.141Z,0.95
2019-01-13T10:04:43.491Z,1.00
2019-01-13T10:05:46.845Z,0.96
2019-01-13T10:06:50.492Z,0.92
2019-01-13T10:07:53.840Z,1.03
2019-01-13T10:08:57.220Z,1.01
2019-01-13T10:10:00.509Z,1.02
2019-01-13T10:11:03.848Z,1.09
2019-01-13T10:12:07.202Z,1.27
2019-01-13T10:13:10.714Z,1.32
2019-01-13T10:14:14.050Z,1.52
2019-01-13T10:15:19.729Z,1.55
2019-01-13T10:16:23.408Z,1.66
2019-01-13T10:17:26.694Z,1.70
2019-01-13T10:18:30.069Z,1.81
2019-01-13T10:19:33.949Z,1.95
2019-01-13T10:20:37.325Z,2.07
2019-01-13T10:21:41.665Z,2.19
2019-01-13T10:22:45.043Z,2.33
2019-01-13T10:23:48.491Z,2.27
2019-01-13T10:24:51.805Z,2.18
2019-01-13T10:25:55.241Z,2.04
2019-01-13T10:27:00.240Z,2.04
2019-01-13T10:28:03.835Z,2.02
2019-01-13T10:29:07.120Z,2.23
2019-01-13T10:30:16.073Z,2.38
2019-01-13T10:31:19.399Z,2.47
2019-01-13T10:32:22.740Z,2.39
2019-01-13T10:33:26.112Z,2.35
2019-01-13T10:34:29.402Z,2.37
2019-01-13T10:35:32.868Z,2.37
2019-01-13T10:36:36.158Z,2.43
2019-01-13T10:37:39.499Z,2.42
2019-01-13T10:38:43.169Z,2.59
2019-01-13T10:40:05.368Z,2.61
2019-01-13T10:41:08.661Z,2.63
2019-01-13T10:42:11.963Z,2.70
2019-01-13T10:43:15.410Z,2.83
2019-01-13T10:44:18.863Z,2.93
2019-01-13T10:45:23.454Z,3.02
2019-01-13T10:46:26.752Z,3.13
2019-01-13T10:47:35.719Z,3.04
2019-01-13T10:48:40.669Z,3.14
2019-01-13T10:49:44.100Z,3.02
2019-01-13T10:50:47.838Z,3.04
2019-01-13T10:51:52.666Z,3.15
2019-01-13T10:52:57.917Z,3.18
2019-01-13T10:54:01.314Z,3.27
2019-01-13T10:55:07.025Z,3.31
2019-01-13T10:56:12.702Z,3.43
2019-01-13T10:57:19.056Z,3.52
2019-01-13T10:58:22.453Z,3.37
2019-01-13T10:59:25.950Z,3.16
2019-01-13T11:00:33.246Z,3.03
2019-01-13T11:01:38.189Z,2.92
2019-01-13T11:02:41.988Z,2.93
2019-01-13T11:03:46.039Z,2.91
2019-01-13T11:04:49.500Z,2.93
2019-01-13T11:05:55.731Z,2.79
2019-01-13T11:07:00.736Z,2.66
2019-01-13T11:08:11.057Z,2.63
2019-01-13T11:09:11.326Z,2.65
2019-01-13T11:10:19.162Z,2.85
2019-01-13T11:11:22.577Z,2.96
2019-01-13T11:12:25.874Z,2.88
2019-01-13T11:13:29.233Z,2.99
2019-01-13T11:14:32.538Z,3.22
2019-01-13T11:15:35.928Z,3.43
2019-01-13T11:16:39.218Z,3.55
2019-01-13T11:17:42.573Z,3.65
2019-01-13T11:18:45.976Z,3.74
2019-01-13T11:19:49.417Z,4.00
2019-01-13T11:20:52.957Z,4.34
2019-01-13T11:21:56.515Z,4.57
2019-01-13T11:22:59.880Z,4.53
2019-01-13T11:24:03.430Z,4.36
2019-01-13T11:25:08.338Z,4.35
2019-01-13T11:26:11.712Z,4.32
2019-01-13T11:27:15.424Z,4.29
2019-01-13T11:28:18.729Z,4.29
2019-01-13T11:29:22.009Z,4.57
2019-01-13T11:30:26.752Z,4.85
2019-01-13T11:31:30.168Z,5.09
2019-01-13T11:32:33.524Z,5.09
2019-01-13T11:33:36.800Z,5.12
2019-01-13T11:34:40.168Z,5.26
2019-01-13T11:35:45.723Z,5.44
2019-01-13T11:36:49.642Z,5.69
2019-01-13T11:37:53.029Z,5.66
2019-01-13T11:38:56.490Z,5.66
2019-01-13T11:39:59.849Z,5.86
2019-01-13T11:41:03.277Z,5.95
2019-01-13T11:42:06.608Z,5.96
2019-01-13T11:43:11.255Z,5.96
2019-01-13T11:44:14.766Z,6.13
2019-01-13T11:45:18.218Z,6.27
2019-01-13T11:46:23.866Z,6.48
2019-01-13T11:47:40.358Z,6.70
2019-01-13T11:48:43.646Z,6.65
2019-01-13T11:49:47.133Z,6.67
2019-01-13T11:50:50.520Z,6.66
2019-01-13T11:51:54.116Z,6.63
2019-01-13T11:53:05.236Z,6.86
2019-01-13T11:54:22.526Z,6.93
2019-01-13T11:55:28.787Z,6.97
2019-01-13T11:56:32.358Z,6.92
2019-01-13T11:57:35.744Z,6.98
2019-01-13T11:58:39.095Z,7.00
2019-01-13T11:59:46.857Z,6.94
2019-01-13T12:00:50.423Z,6.86
2019-01-13T12:01:53.778Z,6.68
2019-01-13T12:02:57.387Z,6.62
2019-01-13T12:04:01.732Z,6.67
2019-01-13T12:05:06.903Z,6.70
2019-01-13T12:06:10.327Z,6.71
2019-01-13T12:07:13.816Z,6.66
2019-01-13T12:08:17.284Z,6.46
2019-01-13T12:09:20.651Z,6.45
2019-01-13T12:10:24.331Z,6.22
2019-01-13T12:11:27.749Z,6.25
2019-01-13T12:12:31.034Z,6.17
2019-01-13T12:13:34.322Z,5.83
2019-01-13T12:14:37.788Z,5.77
2019-01-13T12:15:41.092Z,5.77
2019-01-13T12:16:45.338Z,5.73
2019-01-13T12:17:48.617Z,5.75
2019-01-13T12:18:52.038Z,5.77
2019-01-13T12:19:55.348Z,5.51
2019-01-13T12:20:58.641Z,5.35
2019-01-13T12:22:02.061Z,5.30
2019-01-13T12:23:05.443Z,5.28
2019-01-13T12:24:08.728Z,5.21
2019-01-13T12:25:14.548Z,5.06
2019-01-13T12:26:17.913Z,5.01
2019-01-13T12:27:21.333Z,4.93
2019-01-13T12:28:24.694Z,4.91
2019-01-13T12:29:27.978Z,4.81
2019-01-13T12:30:32.018Z,4.82
2019-01-13T12:31:35.402Z,4.87
2019-01-13T12:32:38.766Z,4.70
2019-01-13T12:33:42.045Z,4.63
2019-01-13T12:34:45.404Z,4.58
2019-01-13T12:35:48.730Z,4.56
2019-01-13T12:36:52.102Z,4.67
2019-01-13T12:37:57.551Z,4.54
2019-01-13T12:39:00.909Z,4.61
2019-01-13T12:40:10.671Z,4.48
2019-01-13T12:41:14.008Z,4.40
2019-01-13T12:42:17.264Z,4.42
2019-01-13T12:43:20.595Z,4.47
2019-01-13T12:44:23.899Z,4.45
2019-01-13T12:45:27.195Z,4.55
2019-01-13T12:46:30.496Z,4.65
2019-01-13T12:47:33.779Z,4.70
2019-01-13T12:48:37.100Z,4.64
2019-01-13T12:49:40.373Z,4.67
2019-01-13T12:50:43.660Z,4.65
2019-01-13T12:51:46.957Z,4.59
2019-01-13T12:52:50.309Z,4.50
2019-01-13T12:53:53.814Z,4.42
2019-01-13T12:54:57.208Z,4.41
2019-01-13T12:56:00.581Z,4.27
2019-01-13T12:57:04.021Z,4.27
2019-01-13T12:58:07.411Z,4.24
2019-01-13T12:59:10.827Z,4.26
2019-01-13T13:00:18.978Z,4.21
2019-01-13T13:01:22.510Z,4.05
2019-01-13T13:02:25.907Z,4.03
2019-01-13T13:03:31.818Z,4.08
2019-01-13T13:04:34.536Z,4.02
2019-01-13T13:05:37.928Z,4.01
2019-01-13T13:06:41.321Z,4.05
2019-01-13T13:07:45.617Z,4.09
2019-01-13T13:08:48.981Z,4.05
2019-01-13T13:09:52.319Z,4.03
2019-01-13T13:10:55.684Z,3.89
2019-01-13T13:11:59.072Z,3.91
2019-01-13T13:13:02.621Z,3.94
2019-01-13T13:14:05.943Z,4.07
2019-01-13T13:15:09.813Z,4.22
2019-01-13T13:16:13.171Z,4.25
2019-01-13T13:17:16.662Z,4.27
2019-01-13T13:18:20.005Z,4.29
2019-01-13T13:19:23.500Z,4.32
2019-01-13T13:20:26.817Z,4.20
2019-01-13T13:21:31.824Z,4.21
2019-01-13T13:22:36.792Z,4.33
2019-01-13T13:23:40.199Z,4.30
2019-01-13T13:24:43.715Z,4.35
2019-01-13T13:25:47.048Z,4.23
2019-01-13T13:26:50.337Z,4.00
2019-01-13T13:27:53.749Z,4.09
2019-01-13T13:28:57.139Z,4.18
2019-01-13T13:30:01.062Z,4.07
2019-01-13T13:31:04.360Z,3.98
2019-01-13T13:32:07.660Z,3.98
2019-01-13T13:33:11.000Z,4.11
2019-01-13T13:34:14.375Z,4.11
2019-01-13T13:35:17.701Z,3.98
2019-01-13T13:36:21.024Z,3.84
2019-01-13T13:37:24.309Z,3.90
2019-01-13T13:38:27.611Z,3.90
2019-01-13T13:39:30.973Z,3.85
2019-01-13T13:40:34.272Z,3.80
2019-01-13T13:41:37.613Z,3.81
2019-01-13T13:42:41.081Z,3.73
2019-01-13T13:43:45.392Z,3.77
2019-01-13T13:44:48.783Z,3.59
2019-01-13T13:45:52.078Z,3.45
2019-01-13T13:46:55.397Z,3.52
2019-01-13T13:47:58.703Z,3.59
2019-01-13T13:49:01.987Z,3.60
2019-01-13T13:50:08.746Z,3.54
2019-01-13T13:51:12.543Z,3.42
2019-01-13T13:52:15.868Z,3.40
2019-01-13T13:53:19.732Z,3.41
2019-01-13T13:54:23.160Z,3.47
2019-01-13T13:55:26.578Z,3.52